createdAt,value
2022-12-31T00:03:46.338Z,7.84
2022-12-31T00:07:49.083Z,7.89
2022-12-31T00:11:50.464Z,7.96
2022-12-31T00:15:51.867Z,7.94
2022-12-31T00:19:53.231Z,8.06
2022-12-31T00:23:56.013Z,8.02
2022-12-31T00:27:57.407Z,7.95
2022-12-31T00:31:58.769Z,8.01
2022-12-31T00:36:07.450Z,8.10
2022-12-31T00:40:11.189Z,8.17
2022-12-31T00:44:12.589Z,8.16
2022-12-31T00:48:13.969Z,8.10
2022-12-31T00:52:15.344Z,8.16
2022-12-31T00:56:19.059Z,8.23
2022-12-31T01:00:20.505Z,8.21
2022-12-31T01:04:21.893Z,8.21
2022-12-31T01:08:23.275Z,8.28
2022-12-31T01:12:26.018Z,8.15
2022-12-31T01:16:28.090Z,8.18
2022-12-31T01:20:29.596Z,8.25
2022-12-31T01:24:30.940Z,8.08
2022-12-31T01:28:33.828Z,8.16
2022-12-31T01:32:35.177Z,8.27
2022-12-31T01:36:36.993Z,8.21
2022-12-31T01:40:39.246Z,8.30
2022-12-31T01:44:53.101Z,8.24
2022-12-31T01:48:56.451Z,8.32
2022-12-31T01:52:59.095Z,8.33
2022-12-31T01:57:00.469Z,8.23
2022-12-31T02:01:04.529Z,8.13
2022-12-31T02:05:10.684Z,8.15
2022-12-31T02:09:12.128Z,8.16
2022-12-31T02:13:14.098Z,8.07
2022-12-31T02:17:21.652Z,8.17
2022-12-31T02:21:34.142Z,8.28
2022-12-31T02:25:52.902Z,8.22
2022-12-31T02:30:01.896Z,8.20
2022-12-31T02:34:06.332Z,8.29
2022-12-31T02:38:08.720Z,8.36
2022-12-31T02:42:10.383Z,8.32
2022-12-31T02:46:17.462Z,8.40
2022-12-31T02:50:25.842Z,8.41
2022-12-31T02:54:31.944Z,8.41
2022-12-31T02:58:37.860Z,8.46
2022-12-31T03:02:41.770Z,8.49
2022-12-31T03:06:43.663Z,8.40
2022-12-31T03:10:45.037Z,8.44
2022-12-31T03:14:46.546Z,8.32
2022-12-31T03:18:49.267Z,8.28
2022-12-31T03:22:50.599Z,8.38
2022-12-31T03:26:51.963Z,8.37
2022-12-31T03:30:55.076Z,8.47
2022-12-31T03:34:57.783Z,8.55
2022-12-31T03:38:59.194Z,8.54
2022-12-31T03:43:00.882Z,8.58
2022-12-31T03:47:02.250Z,8.67
2022-12-31T03:51:05.028Z,8.84
2022-12-31T03:55:07.047Z,8.95
2022-12-31T03:59:08.409Z,9.03
2022-12-31T04:03:09.777Z,9.14
2022-12-31T04:07:12.516Z,9.24
2022-12-31T04:11:20.475Z,9.10
2022-12-31T04:15:22.135Z,9.09
2022-12-31T04:19:23.561Z,9.06
2022-12-31T04:23:26.262Z,9.08
2022-12-31T04:27:27.630Z,8.99
2022-12-31T04:31:29.092Z,8.98
2022-12-31T04:35:30.493Z,9.00
2022-12-31T04:39:33.279Z,8.96
2022-12-31T04:43:34.681Z,8.87
2022-12-31T04:47:36.136Z,8.90
2022-12-31T04:51:37.623Z,8.98
2022-12-31T04:55:41.878Z,9.14
2022-12-31T04:59:43.236Z,9.06
2022-12-31T05:03:44.658Z,9.23
2022-12-31T05:07:46.052Z,9.29
2022-12-31T05:11:48.807Z,9.48
2022-12-31T05:15:50.507Z,9.65
2022-12-31T05:19:51.894Z,9.64
2022-12-31T05:23:53.297Z,9.84
2022-12-31T05:27:56.308Z,9.84
2022-12-31T05:31:57.732Z,9.86
2022-12-31T05:35:59.230Z,10.09
2022-12-31T05:40:00.604Z,10.18
2022-12-31T05:44:03.495Z,10.20
2022-12-31T05:48:05.207Z,10.25
2022-12-31T05:52:07.067Z,10.10
2022-12-31T05:56:08.485Z,10.10
2022-12-31T06:00:12.020Z,10.02
2022-12-31T06:04:13.416Z,10.05
2022-12-31T06:08:14.819Z,10.14
2022-12-31T06:12:16.226Z,10.11
2022-12-31T06:16:19.061Z,10.17
2022-12-31T06:20:20.482Z,10.13
2022-12-31T06:24:21.935Z,10.16
2022-12-31T06:28:23.355Z,10.11
2022-12-31T06:32:26.130Z,10.03
2022-12-31T06:36:27.705Z,10.00
2022-12-31T06:40:29.064Z,10.01
2022-12-31T06:44:30.453Z,10.20
2022-12-31T06:48:33.229Z,10.31
2022-12-31T06:52:34.604Z,10.45
2022-12-31T06:56:36.200Z,10.46
2022-12-31T07:00:37.616Z,10.46
2022-12-31T07:04:50.577Z,10.57
2022-12-31T07:08:56.456Z,10.50
2022-12-31T07:13:19.940Z,10.41
2022-12-31T07:17:28.272Z,10.48
2022-12-31T07:21:33.473Z,10.54
2022-12-31T07:25:35.690Z,10.54
2022-12-31T07:29:53.662Z,10.76
2022-12-31T07:33:58.483Z,10.76
2022-12-31T07:38:05.761Z,10.90
2022-12-31T07:42:11.662Z,10.87
2022-12-31T07:46:17.249Z,10.87
2022-12-31T07:50:19.239Z,11.02
2022-12-31T07:54:22.030Z,11.00
2022-12-31T07:58:26.114Z,11.11
2022-12-31T08:02:36.880Z,11.08
2022-12-31T08:06:43.379Z,11.06
2022-12-31T08:10:51.478Z,11.17
2022-12-31T08:14:53.041Z,11.12
2022-12-31T08:18:54.613Z,11.05
2022-12-31T08:23:11.362Z,11.11
2022-12-31T08:27:20.902Z,11.13
2022-12-31T08:31:25.742Z,11.19
2022-12-31T08:35:33.281Z,11.52
2022-12-31T08:39:58.593Z,11.58
2022-12-31T08:44:08.279Z,11.64
2022-12-31T08:48:16.506Z,11.79
2022-12-31T08:52:21.764Z,11.89
2022-12-31T08:56:26.821Z,12.04
2022-12-31T09:00:30.476Z,12.20
2022-12-31T09:04:40.535Z,12.26
2022-12-31T09:08:47.437Z,12.34
2022-12-31T09:12:54.990Z,12.44
2022-12-31T09:17:00.530Z,12.48
2022-12-31T09:21:02.072Z,12.63
2022-12-31T09:25:03.673Z,12.58
2022-12-31T09:29:10.102Z,12.55
2022-12-31T09:33:16.572Z,12.63
2022-12-31T09:37:20.852Z,12.69
2022-12-31T09:41:40.164Z,12.69
2022-12-31T09:45:55.492Z,12.74
2022-12-31T09:50:11.751Z,12.93
2022-12-31T09:54:23.662Z,13.23
2022-12-31T09:58:32.432Z,13.52
2022-12-31T10:02:47.706Z,13.66
2022-12-31T10:06:54.074Z,13.63
2022-12-31T10:10:58.761Z,13.78
2022-12-31T10:15:21.237Z,13.91
2022-12-31T10:19:30.256Z,13.89
2022-12-31T10:23:50.205Z,14.16
2022-12-31T10:27:59.005Z,14.30
2022-12-31T10:32:10.996Z,14.42
2022-12-31T10:36:18.273Z,14.48
2022-12-31T10:40:24.652Z,14.52
2022-12-31T10:44:43.739Z,14.51
2022-12-31T10:48:57.416Z,14.56
2022-12-31T10:53:09.272Z,14.51
2022-12-31T10:57:34.713Z,14.56
2022-12-31T11:01:42.065Z,14.44
2022-12-31T11:06:07.352Z,14.56
2022-12-31T11:10:20.467Z,14.56
2022-12-31T11:14:34.912Z,14.62
2022-12-31T11:18:41.805Z,14.58
2022-12-31T11:22:54.098Z,14.74
2022-12-31T11:27:10.636Z,14.87
2022-12-31T11:31:16.397Z,14.96
2022-12-31T11:35:23.251Z,14.92
2022-12-31T11:39:34.723Z,14.92
2022-12-31T11:43:39.355Z,14.82
2022-12-31T11:48:28.037Z,14.69
2022-12-31T11:52:30.064Z,14.57
2022-12-31T11:56:34.545Z,14.58
2022-12-31T12:00:38.245Z,14.51
2022-12-31T12:04:39.597Z,14.55
2022-12-31T12:08:42.374Z,14.60
2022-12-31T12:12:43.723Z,14.57
2022-12-31T12:16:46.587Z,14.62
2022-12-31T12:20:48.041Z,14.66
2022-12-31T12:24:52.648Z,14.72
2022-12-31T12:28:54.042Z,14.68
2022-12-31T12:32:58.368Z,14.78
2022-12-31T12:37:00.087Z,14.71
2022-12-31T12:41:03.768Z,14.69
2022-12-31T12:45:08.101Z,14.50
2022-12-31T12:49:18.422Z,14.42
2022-12-31T12:53:36.537Z,14.56
2022-12-31T12:57:43.489Z,14.46
2022-12-31T13:01:47.992Z,14.47
2022-12-31T13:05:58.284Z,14.22
2022-12-31T13:10:15.657Z,14.24
2022-12-31T13:14:21.712Z,14.19
2022-12-31T13:18:28.744Z,14.16
2022-12-31T13:22:34.393Z,14.12
2022-12-31T13:26:39.159Z,14.21
2022-12-31T13:30:42.560Z,14.10
2022-12-31T13:34:44.741Z,14.00
2022-12-31T13:38:49.121Z,14.01
2022-12-31T13:42:54.535Z,13.99
2022-12-31T13:46:59.035Z,13.89
2022-12-31T13:51:03.103Z,13.85
2022-12-31T13:55:10.257Z,13.76
2022-12-31T13:59:15.374Z,13.67
2022-12-31T14:03:20.806Z,13.69
2022-12-31T14:07:29.110Z,13.67
2022-12-31T14:11:43.461Z,13.62
2022-12-31T14:15:49.626Z,13.55
2022-12-31T14:19:56.024Z,13.26
2022-12-31T14:24:03.999Z,13.08
2022-12-31T14:28:09.979Z,12.79
2022-12-31T14:32:28.389Z,12.53
2022-12-31T14:36:34.377Z,12.25
2022-12-31T14:40:41.737Z,12.39
2022-12-31T14:44:52.308Z,12.03
2022-12-31T14:48:58.989Z,11.78
2022-12-31T14:53:07.030Z,11.60
2022-12-31T14:57:17.836Z,11.64
2022-12-31T15:01:20.811Z,11.77
2022-12-31T15:05:23.524Z,11.66
2022-12-31T15:09:39.742Z,11.62
2022-12-31T15:13:48.809Z,11.62
2022-12-31T15:17:57.294Z,11.83
2022-12-31T15:22:04.807Z,11.84
2022-12-31T15:26:06.733Z,11.97
2022-12-31T15:30:28.350Z,12.07
2022-12-31T15:34:31.973Z,11.92
2022-12-31T15:38:34.819Z,11.96
2022-12-31T15:42:47.167Z,11.77
2022-12-31T15:46:54.006Z,11.69
2022-12-31T15:50:57.892Z,11.55
2022-12-31T15:55:00.234Z,11.25
2022-12-31T15:59:03.546Z,11.00
2022-12-31T16:03:18.080Z,10.70
2022-12-31T16:07:21.149Z,10.69
2022-12-31T16:11:22.903Z,10.58
2022-12-31T16:15:25.367Z,10.63
2022-12-31T16:19:31.387Z,10.74
2022-12-31T16:23:40.417Z,10.96
2022-12-31T16:27:43.853Z,10.90
2022-12-31T16:31:46.391Z,11.18
2022-12-31T16:35:54.074Z,11.25
2022-12-31T16:40:16.618Z,11.15
2022-12-31T16:44:24.693Z,11.11
2022-12-31T16:48:26.114Z,11.08
2022-12-31T16:52:30.624Z,11.22
2022-12-31T16:56:34.756Z,11.12
2022-12-31T17:00:36.532Z,11.13
2022-12-31T17:04:45.098Z,11.20
2022-12-31T17:08:50.146Z,11.30
2022-12-31T17:17:21.844Z,11.13
2022-12-31T17:21:25.178Z,11.20
2022-12-31T17:25:27.538Z,11.24
2022-12-31T17:29:30.284Z,11.19
2022-12-31T17:33:31.872Z,11.24
2022-12-31T17:37:33.224Z,11.22
2022-12-31T17:41:34.623Z,11.39
2022-12-31T17:45:37.947Z,11.36
2022-12-31T17:49:40.764Z,11.54
2022-12-31T17:53:42.218Z,11.46
2022-12-31T17:57:47.400Z,11.47
2022-12-31T18:01:50.203Z,11.60
2022-12-31T18:05:51.685Z,11.60
2022-12-31T18:09:53.110Z,11.52
2022-12-31T18:13:54.519Z,11.52
2022-12-31T18:17:57.220Z,11.54
2022-12-31T18:21:58.683Z,11.52
2022-12-31T18:26:00.076Z,11.52
2022-12-31T18:30:04.739Z,11.52
2022-12-31T18:34:11.728Z,11.52
2022-12-31T18:38:14.202Z,11.51
2022-12-31T18:42:17.256Z,11.45
2022-12-31T18:46:22.944Z,11.38
2022-12-31T18:50:25.675Z,11.29
2022-12-31T18:54:27.051Z,11.21
2022-12-31T18:58:28.377Z,11.30
2022-12-31T19:02:29.772Z,11.34
2022-12-31T19:06:32.485Z,11.32
2022-12-31T19:10:33.924Z,11.37
2022-12-31T19:14:35.366Z,11.36
2022-12-31T19:18:36.860Z,11.36
2022-12-31T19:22:39.595Z,11.27
2022-12-31T19:26:43.444Z,11.18
2022-12-31T19:30:45.429Z,10.93
2022-12-31T19:34:46.768Z,10.71
2022-12-31T19:38:49.520Z,10.52
2022-12-31T19:42:51.632Z,10.47
2022-12-31T19:46:53.037Z,10.40
2022-12-31T19:50:54.424Z,10.32
2022-12-31T19:54:57.164Z,10.09
2022-12-31T19:59:02.531Z,9.89
2022-12-31T20:03:04.122Z,9.76
2022-12-31T20:07:05.655Z,9.58
2022-12-31T20:11:09.162Z,9.30
2022-12-31T20:15:10.678Z,9.15
2022-12-31T20:19:12.103Z,8.97
2022-12-31T20:23:13.511Z,8.85
2022-12-31T20:27:18.579Z,8.58
2022-12-31T20:31:21.306Z,8.56
2022-12-31T20:35:22.751Z,8.33
2022-12-31T20:39:24.141Z,8.24
2022-12-31T20:43:29.533Z,8.08
2022-12-31T20:47:30.910Z,8.03
2022-12-31T20:51:33.646Z,7.96
2022-12-31T20:55:36.939Z,7.91
2022-12-31T20:59:39.823Z,7.83
2022-12-31T21:08:04.177Z,7.82
2022-12-31T21:12:05.672Z,7.65
2022-12-31T21:16:08.593Z,7.65
2022-12-31T21:20:10.688Z,7.65
2022-12-31T21:24:12.066Z,7.74
2022-12-31T21:28:13.477Z,7.88
2022-12-31T21:32:16.289Z,7.82
2022-12-31T21:36:17.672Z,8.07
2022-12-31T21:40:19.035Z,7.94
2022-12-31T21:44:21.071Z,8.05
2022-12-31T21:48:23.828Z,8.23
2022-12-31T21:52:25.231Z,8.33
2022-12-31T21:56:26.610Z,8.29
2022-12-31T22:00:43.837Z,8.39
2022-12-31T22:05:03.166Z,8.49
2022-12-31T22:09:06.218Z,8.46
2022-12-31T22:13:07.630Z,8.43
2022-12-31T22:17:09.038Z,8.47
2022-12-31T22:21:18.126Z,8.68
2022-12-31T22:25:20.038Z,8.63
2022-12-31T22:29:21.407Z,8.57
2022-12-31T22:33:22.845Z,8.58
2022-12-31T22:37:55.697Z,8.34
2022-12-31T22:41:46.999Z,8.28
2022-12-31T22:45:48.371Z,8.19
2022-12-31T22:49:49.775Z,8.05
2022-12-31T22:53:52.498Z,7.96
2022-12-31T22:57:53.826Z,7.98
2022-12-31T23:01:55.230Z,7.93
2022-12-31T23:05:56.602Z,7.89
2022-12-31T23:09:59.333Z,7.87
2022-12-31T23:14:00.765Z,7.81
2022-12-31T23:18:02.166Z,7.73
2022-12-31T23:22:03.539Z,7.88
2022-12-31T23:26:06.305Z,7.66
2022-12-31T23:30:08.209Z,7.63
2022-12-31T23:34:09.661Z,7.63
2022-12-31T23:38:11.402Z,7.54
2022-12-31T23:42:14.143Z,7.43
2022-12-31T23:46:16.369Z,7.38
2022-12-31T23:50:17.790Z,7.42
2022-12-31T23:54:19.169Z,7.43
2022-12-31T23:58:21.930Z,7.31
